Terminal Aerodrome Forecast
Issued by NWS Sioux Falls, SD

Home | Current Version | Previous Version | Graphics & Text | Print | Product List | Glossary Off
Versions: 1 2 3 4 5 6 7 8 9 10 11 12 13

000
FTUS43 KFSD 300520
TAFFSD
TAF
KFSD 300520Z 3006/3106 22004KT P6SM SCT200
     FM301400 24010KT P6SM SCT150
     FM301800 29014G21KT P6SM SCT250
     FM310000 31006KT P6SM SKC=

USA.gov is the U.S. government's official web portal to all federal, state and local government web resources and services.